Time;durP1;ratioP1;P1;durP2;ratioP2;P2;SDS_P1;SDS_P2;PMS_P1;PMS_P2;Temp;Humidity;BMP_temperature;BMP_pressure;BME280_temperature;BME280_humidity;BME280_pressure;Samples;Min_cycle;Max_cycle;Signal;HPM_P1;HPM_P2
2022/01/13 00:01:30;;;;;;;15.70;8.77;;;19.40;52.10;;;;;;5097910;28;20100;-74
2022/01/13 00:03:59;;;;;;;15.88;9.32;;;19.40;52.00;;;;;;5098176;28;20070;-74
2022/01/13 00:06:25;;;;;;;14.63;9.40;;;19.50;52.00;;;;;;5098194;28;20055;-74
2022/01/13 00:08:51;;;;;;;19.30;9.90;;;19.50;51.90;;;;;;5097983;28;20085;-75
2022/01/13 00:11:17;;;;;;;18.95;10.27;;;19.50;51.70;;;;;;5097980;28;20037;-74
2022/01/13 00:13:51;;;;;;;19.55;10.13;;;19.50;51.70;;;;;;5097898;28;20100;-74
2022/01/13 00:16:37;;;;;;;15.73;9.63;;;19.50;51.50;;;;;;5097898;28;20069;-75
2022/01/13 00:21:34;;;;;;;15.10;9.05;;;19.50;51.20;;;;;;5097691;28;20040;-75
2022/01/13 00:24:03;;;;;;;17.05;9.52;;;19.60;51.20;;;;;;5097514;28;20044;-75
2022/01/13 00:26:32;;;;;;;15.95;10.25;;;19.60;51.10;;;;;;5097814;28;20044;-74
2022/01/13 00:29:01;;;;;;;18.58;9.70;;;19.60;51.10;;;;;;5097128;28;20067;-75
2022/01/13 00:31:31;;;;;;;17.88;9.95;;;19.60;51.00;;;;;;5097455;28;20059;-75
2022/01/13 00:34:00;;;;;;;16.15;10.30;;;19.60;51.00;;;;;;5097606;28;20135;-75
2022/01/13 00:36:32;;;;;;;18.27;10.60;;;19.70;51.10;;;;;;5097454;28;20036;-74
2022/01/13 00:38:58;;;;;;;19.45;11.05;;;19.60;50.90;;;;;;5097584;28;20051;-75
2022/01/13 00:41:27;;;;;;;17.58;10.57;;;19.50;50.90;;;;;;5097374;28;20039;-75
2022/01/13 00:43:56;;;;;;;14.77;10.05;;;19.60;50.90;;;;;;5097088;28;20074;-74
2022/01/13 00:46:26;;;;;;;18.88;10.65;;;19.50;50.80;;;;;;5097340;28;20104;-74
2022/01/13 00:48:53;;;;;;;16.92;10.43;;;19.40;50.90;;;;;;5096885;28;20032;-75
2022/01/13 00:51:21;;;;;;;16.38;10.38;;;19.40;50.90;;;;;;5096926;28;20041;-74
2022/01/13 00:53:48;;;;;;;18.60;11.20;;;19.40;50.90;;;;;;5097069;28;20059;-75
2022/01/13 00:56:14;;;;;;;16.95;9.95;;;19.40;50.90;;;;;;5097320;28;20037;-74
2022/01/13 00:58:40;;;;;;;15.75;10.55;;;19.30;50.90;;;;;;5096976;28;20154;-74
2022/01/13 01:01:07;;;;;;;20.50;10.52;;;19.30;50.90;;;;;;5097082;28;20032;-75
2022/01/13 01:03:35;;;;;;;19.05;10.65;;;19.30;51.00;;;;;;5096989;28;20603;-74
2022/01/13 01:06:03;;;;;;;21.60;10.80;;;19.30;50.90;;;;;;5096977;28;20032;-74
2022/01/13 01:08:32;;;;;;;20.85;11.00;;;19.20;50.70;;;;;;5097077;28;20043;-74
2022/01/13 01:11:01;;;;;;;17.70;11.07;;;19.30;50.70;;;;;;5096492;28;20037;-75
2022/01/13 01:13:31;;;;;;;20.67;10.80;;;19.40;50.40;;;;;;5096838;28;20036;-74
2022/01/13 01:16:00;;;;;;;17.58;9.85;;;19.40;50.20;;;;;;5096685;28;20052;-74
2022/01/13 01:19:00;;;;;;;17.60;10.23;;;19.40;50.10;;;;;;5078980;28;20033;-75
2022/01/13 01:29:01;;;;;;;17.10;9.70;;;19.20;50.40;;;;;;5096883;28;20064;-74
2022/01/13 01:31:31;;;;;;;16.42;10.25;;;19.20;50.50;;;;;;5095768;28;20056;-75
2022/01/13 01:36:31;;;;;;;20.40;10.40;;;19.20;50.30;;;;;;5096835;28;20041;-74
2022/01/13 01:38:59;;;;;;;18.17;9.38;;;19.30;50.40;;;;;;5096441;28;20048;-74
2022/01/13 01:41:26;;;;;;;16.15;10.57;;;19.20;50.20;;;;;;5096513;28;20108;-75
2022/01/13 01:44:00;;;;;;;18.77;10.27;;;19.20;50.10;;;;;;5096652;28;20064;-75
2022/01/13 01:46:26;;;;;;;17.88;9.63;;;19.30;49.90;;;;;;5096582;28;20032;-75
2022/01/13 01:48:53;;;;;;;22.77;11.45;;;19.40;49.90;;;;;;5096602;28;20036;-74
2022/01/13 01:51:19;;;;;;;18.10;9.40;;;19.40;49.80;;;;;;5096276;28;20044;-75
2022/01/13 01:53:45;;;;;;;21.00;11.45;;;19.30;49.80;;;;;;5096205;28;20048;-74
2022/01/13 01:56:11;;;;;;;18.73;10.63;;;19.40;49.80;;;;;;5096747;28;20052;-75
2022/01/13 01:58:38;;;;;;;19.38;9.82;;;19.40;49.80;;;;;;5097731;28;20032;-74
2022/01/13 02:01:04;;;;;;;17.70;10.30;;;19.40;49.70;;;;;;5100388;28;20051;-75
2022/01/13 02:03:31;;;;;;;24.73;10.77;;;19.40;49.70;;;;;;5100322;28;20041;-75
2022/01/13 02:05:57;;;;;;;19.02;9.93;;;19.30;49.70;;;;;;5100302;28;20070;-75
2022/01/13 02:08:23;;;;;;;19.92;10.32;;;19.40;49.60;;;;;;5100394;28;20040;-74
2022/01/13 02:10:50;;;;;;;20.77;10.65;;;19.40;49.50;;;;;;5100318;28;20040;-74
2022/01/13 02:13:22;;;;;;;15.07;10.23;;;19.30;49.60;;;;;;5100189;28;20056;-75
2022/01/13 02:16:25;;;;;;;14.45;9.75;;;19.40;49.30;;;;;;5100112;28;20871;-74
2022/01/13 02:18:34;;;;;;;21.52;9.90;;;19.40;49.40;;;;;;5099866;28;20032;-75
2022/01/13 02:21:01;;;;;;;17.45;10.38;;;19.40;49.40;;;;;;5100191;28;20040;-74
2022/01/13 02:23:34;;;;;;;17.55;9.82;;;19.30;49.40;;;;;;5099700;28;20037;-74
2022/01/13 02:26:00;;;;;;;18.42;10.73;;;19.20;49.50;;;;;;5100121;28;20096;-74
2022/01/13 02:28:27;;;;;;;19.00;11.07;;;19.30;49.60;;;;;;5099945;28;20060;-75
2022/01/13 02:30:53;;;;;;;20.10;10.90;;;19.20;49.70;;;;;;5099869;28;20048;-74
2022/01/13 02:33:20;;;;;;;22.38;11.05;;;19.20;49.70;;;;;;5099797;28;20059;-74
2022/01/13 02:35:46;;;;;;;19.40;10.38;;;19.20;49.70;;;;;;5099739;28;20040;-74
2022/01/13 02:38:12;;;;;;;17.05;10.07;;;19.10;49.70;;;;;;5099845;28;20049;-74
2022/01/13 02:40:39;;;;;;;15.93;9.93;;;19.20;49.70;;;;;;5099667;28;20036;-75
2022/01/13 02:43:07;;;;;;;17.33;10.00;;;19.20;49.70;;;;;;5099450;28;20064;-74
2022/01/13 02:45:36;;;;;;;16.58;10.73;;;19.10;49.70;;;;;;5099824;28;20045;-74
2022/01/13 02:48:26;;;;;;;21.17;11.18;;;19.20;49.70;;;;;;5099627;28;20119;-74
2022/01/13 02:50:53;;;;;;;21.20;11.55;;;19.10;49.60;;;;;;5099404;28;20052;-74
2022/01/13 02:53:21;;;;;;;20.70;11.65;;;19.10;49.30;;;;;;5099260;28;20045;-74
2022/01/13 02:55:47;;;;;;;18.83;11.27;;;19.20;49.20;;;;;;5099543;28;20040;-75
2022/01/13 02:58:15;;;;;;;21.17;10.85;;;19.20;49.30;;;;;;5099395;28;20062;-74
2022/01/13 03:00:42;;;;;;;19.17;11.05;;;19.10;49.30;;;;;;5099251;28;20070;-74
2022/01/13 03:03:09;;;;;;;15.93;10.48;;;19.10;49.20;;;;;;5099087;28;20036;-75
2022/01/13 03:05:38;;;;;;;20.95;11.38;;;19.20;49.40;;;;;;5099277;28;20037;-75
2022/01/13 03:08:08;;;;;;;21.35;9.77;;;19.10;49.40;;;;;;5099066;28;20044;-75
2022/01/13 03:10:35;;;;;;;19.58;10.63;;;19.00;49.50;;;;;;5098417;28;20029;-74
2022/01/13 03:13:02;;;;;;;16.58;10.25;;;19.10;49.60;;;;;;5098947;28;20048;-75
2022/01/13 03:15:28;;;;;;;16.40;10.55;;;19.00;49.40;;;;;;5099150;28;20049;-74
2022/01/13 03:17:54;;;;;;;17.02;10.48;;;19.00;49.30;;;;;;5098963;28;20036;-75
2022/01/13 03:20:20;;;;;;;18.90;10.55;;;19.00;49.30;;;;;;5099046;28;20048;-74
2022/01/13 03:22:46;;;;;;;21.45;10.25;;;19.10;49.50;;;;;;5098881;28;20041;-74
2022/01/13 03:25:14;;;;;;;18.52;11.10;;;19.20;49.20;;;;;;5098795;28;20128;-74
2022/01/13 03:27:41;;;;;;;23.08;11.88;;;19.10;49.10;;;;;;5098632;28;20044;-74
2022/01/13 03:30:09;;;;;;;20.88;10.98;;;19.20;49.10;;;;;;5098819;28;20075;-74
2022/01/13 03:32:37;;;;;;;18.30;11.38;;;19.20;49.10;;;;;;5098449;28;20056;-74
2022/01/13 03:35:06;;;;;;;22.05;11.02;;;19.30;49.00;;;;;;5098306;28;20044;-74
2022/01/13 03:37:32;;;;;;;17.55;10.80;;;19.30;48.80;;;;;;5098673;28;20409;-75
2022/01/13 03:39:59;;;;;;;17.77;10.70;;;19.30;48.80;;;;;;5098597;28;20584;-75
2022/01/13 03:42:25;;;;;;;23.90;10.50;;;19.30;48.70;;;;;;5098505;28;20028;-75
2022/01/13 03:44:52;;;;;;;16.33;10.20;;;19.30;48.70;;;;;;5097842;28;20082;-74
2022/01/13 03:47:18;;;;;;;17.35;9.35;;;19.30;48.70;;;;;;5098495;28;20104;-74
2022/01/13 03:49:44;;;;;;;19.17;11.60;;;19.40;48.60;;;;;;5098341;28;20071;-75
2022/01/13 03:52:30;;;;;;;17.85;10.45;;;19.50;48.40;;;;;;5098264;28;20135;-75
2022/01/13 03:55:40;;;;;;;17.98;11.40;;;19.60;48.20;;;;;;5098358;28;20074;-75
2022/01/13 03:58:42;;;;;;;23.02;10.73;;;19.60;48.40;;;;;;5083707;28;20523;-75
2022/01/13 04:01:45;;;;;;;23.42;12.55;;;19.60;48.60;;;;;;5098249;28;20041;-74
2022/01/13 04:04:12;;;;;;;22.17;12.40;;;19.40;48.80;;;;;;5097974;28;20070;-74
2022/01/13 04:06:40;;;;;;;21.10;12.25;;;19.40;49.00;;;;;;5098107;28;20055;-74
2022/01/13 04:09:28;;;;;;;18.25;11.40;;;19.30;49.40;;;;;;5098181;28;20044;-74
2022/01/13 04:11:54;;;;;;;21.38;12.23;;;19.30;49.40;;;;;;5098148;28;20028;-74
2022/01/13 04:14:29;;;;;;;19.02;12.27;;;19.20;49.40;;;;;;5097300;28;20056;-74
2022/01/13 04:16:55;;;;;;;19.48;11.73;;;19.10;49.60;;;;;;5098026;28;20047;-74
2022/01/13 04:19:21;;;;;;;21.75;12.77;;;19.10;49.70;;;;;;5097858;28;20100;-75
2022/01/13 04:21:47;;;;;;;18.45;11.27;;;19.20;49.60;;;;;;5096781;28;20041;-74
2022/01/13 04:24:14;;;;;;;16.67;10.90;;;19.00;49.50;;;;;;5097489;28;20120;-75
2022/01/13 04:26:43;;;;;;;23.73;12.48;;;19.00;49.50;;;;;;5097802;28;20033;-74
2022/01/13 04:31:45;;;;;;;20.67;11.60;;;19.00;49.40;;;;;;5097611;28;20045;-74
2022/01/13 04:34:12;;;;;;;19.70;11.50;;;19.00;49.20;;;;;;5097443;28;20040;-74
2022/01/13 04:36:38;;;;;;;21.40;12.77;;;19.00;49.20;;;;;;5097462;28;20037;-75
2022/01/13 04:39:07;;;;;;;26.92;12.38;;;19.10;49.10;;;;;;5096789;28;20032;-74
2022/01/13 04:41:35;;;;;;;20.83;12.82;;;19.00;48.90;;;;;;5097482;28;20056;-74
2022/01/13 04:44:06;;;;;;;23.23;11.90;;;19.10;49.00;;;;;;5097185;28;20045;-75
2022/01/13 04:46:33;;;;;;;19.95;11.80;;;19.00;49.20;;;;;;5097408;28;20075;-74
2022/01/13 04:49:00;;;;;;;21.60;12.40;;;19.00;49.20;;;;;;5097213;28;20071;-74
2022/01/13 04:51:27;;;;;;;21.58;12.07;;;19.00;49.40;;;;;;5097265;28;20059;-74
2022/01/13 04:53:53;;;;;;;19.17;11.43;;;19.00;49.70;;;;;;5097244;28;20040;-75
2022/01/13 04:56:30;;;;;;;23.50;12.00;;;19.10;49.60;;;;;;5097106;28;20032;-75
2022/01/13 04:58:57;;;;;;;19.67;11.40;;;19.10;49.30;;;;;;5097350;28;20040;-75
2022/01/13 05:01:24;;;;;;;18.77;10.93;;;19.30;49.40;;;;;;5096842;28;20066;-75
2022/01/13 05:03:51;;;;;;;19.48;12.63;;;19.40;49.30;;;;;;5096165;28;20051;-75
2022/01/13 05:06:20;;;;;;;19.02;10.48;;;19.20;49.30;;;;;;5096599;28;20040;-81
2022/01/13 05:08:47;;;;;;;14.93;8.80;;;19.30;51.50;;;;;;5096493;28;20048;-78
2022/01/13 05:11:14;;;;;;;16.58;10.95;;;19.80;49.00;;;;;;5096232;28;20104;-79
2022/01/13 05:13:41;;;;;;;15.07;8.77;;;20.00;46.10;;;;;;5096050;28;20064;-79
2022/01/13 05:16:14;;;;;;;19.92;8.90;;;20.30;44.20;;;;;;5096304;28;20048;-78
2022/01/13 05:18:57;;;;;;;18.63;11.13;;;20.20;42.30;;;;;;5096091;28;20044;-80
2022/01/13 05:21:27;;;;;;;19.85;12.25;;;20.40;44.10;;;;;;5095559;28;20041;-77
2022/01/13 05:23:53;;;;;;;24.45;12.15;;;20.80;49.00;;;;;;5095726;28;20028;-80
2022/01/13 05:26:22;;;;;;;20.23;12.68;;;20.90;49.50;;;;;;5096256;28;20051;-77
2022/01/13 05:28:48;;;;;;;25.00;14.90;;;21.10;44.90;;;;;;5096202;28;20085;-74
2022/01/13 05:31:14;;;;;;;22.92;14.90;;;21.00;39.10;;;;;;5095727;28;20056;-74
2022/01/13 05:33:41;;;;;;;22.90;14.20;;;20.70;38.50;;;;;;5095527;28;20040;-76
2022/01/13 05:36:08;;;;;;;21.83;13.77;;;20.40;39.00;;;;;;5095919;28;20060;-76
2022/01/13 05:38:34;;;;;;;22.80;14.00;;;20.20;39.70;;;;;;5095291;28;20036;-74
2022/01/13 05:41:00;;;;;;;23.50;14.18;;;20.10;40.80;;;;;;5095861;28;20044;-75
2022/01/13 05:43:27;;;;;;;22.33;13.93;;;20.00;42.10;;;;;;5095601;28;20028;-76
2022/01/13 05:45:53;;;;;;;22.58;14.13;;;19.80;43.00;;;;;;5095726;28;20035;-74
2022/01/13 05:48:19;;;;;;;23.65;14.52;;;19.80;43.80;;;;;;5095807;28;20055;-75
2022/01/13 05:50:45;;;;;;;24.75;14.48;;;19.70;44.40;;;;;;5095431;28;20066;-74
2022/01/13 05:53:11;;;;;;;19.67;13.35;;;19.70;45.20;;;;;;5095626;28;20068;-74
2022/01/13 05:55:39;;;;;;;23.00;14.55;;;19.70;45.90;;;;;;5095752;28;20053;-72
2022/01/13 05:58:05;;;;;;;29.33;14.68;;;19.60;46.50;;;;;;5095814;28;20036;-74
2022/01/13 06:00:32;;;;;;;18.52;12.48;;;19.60;47.30;;;;;;5095845;28;20043;-75
2022/01/13 06:02:58;;;;;;;24.92;13.63;;;19.50;47.80;;;;;;5095658;28;20055;-74
2022/01/13 06:05:25;;;;;;;20.40;13.23;;;19.70;50.60;;;;;;5092965;28;20103;-74
2022/01/13 06:07:53;;;;;;;21.25;12.43;;;19.70;46.00;;;;;;5095389;28;20041;-74
2022/01/13 06:10:20;;;;;;;15.40;9.25;;;19.90;41.70;;;;;;5089627;28;20080;-74
2022/01/13 06:12:52;;;;;;;14.68;10.55;;;20.10;41.60;;;;;;5074847;28;20104;-73
2022/01/13 06:15:21;;;;;;;13.48;9.18;;;20.30;39.80;;;;;;5074902;28;20053;-73
2022/01/13 06:17:49;;;;;;;12.38;8.07;;;20.30;39.90;;;;;;5085906;28;20040;-73
2022/01/13 06:20:17;;;;;;;16.58;9.85;;;20.60;37.40;;;;;;5094477;28;20108;-73
2022/01/13 06:22:44;;;;;;;18.38;9.30;;;20.50;38.80;;;;;;5077087;28;20058;-74
2022/01/13 06:25:12;;;;;;;13.00;9.77;;;20.40;38.60;;;;;;5091788;28;20051;-74
2022/01/13 06:27:39;;;;;;;15.60;10.32;;;20.50;37.40;;;;;;5094833;28;20100;-74
2022/01/13 06:30:08;;;;;;;19.02;11.80;;;20.60;38.00;;;;;;5094564;28;20040;-73
2022/01/13 06:32:34;;;;;;;18.15;10.65;;;20.60;40.10;;;;;;5094225;28;20060;-75
2022/01/13 06:35:02;;;;;;;16.23;10.60;;;20.80;40.70;;;;;;5094306;28;20045;-73
2022/01/13 06:37:29;;;;;;;18.98;10.73;;;20.80;41.60;;;;;;5094672;28;20070;-73
2022/01/13 06:39:55;;;;;;;15.82;9.70;;;21.00;40.30;;;;;;5077157;28;20059;-75
2022/01/13 06:42:21;;;;;;;16.88;11.23;;;21.00;40.60;;;;;;5094467;28;20119;-73
2022/01/13 06:44:48;;;;;;;19.30;11.40;;;21.00;39.30;;;;;;5094354;28;20067;-72
2022/01/13 06:47:14;;;;;;;24.30;14.45;;;21.00;39.10;;;;;;5098004;28;20047;-74
2022/01/13 06:49:40;;;;;;;22.50;14.38;;;21.10;52.60;;;;;;5097927;28;20060;-73
2022/01/13 06:52:07;;;;;;;21.30;14.60;;;21.00;52.70;;;;;;5098320;28;20060;-73
2022/01/13 06:54:34;;;;;;;25.08;15.52;;;20.90;52.00;;;;;;5097433;28;20048;-75
2022/01/13 06:57:00;;;;;;;27.88;16.50;;;20.60;52.20;;;;;;5098042;28;20040;-74
2022/01/13 06:59:27;;;;;;;28.52;16.15;;;20.60;52.80;;;;;;5098535;28;20043;-75
2022/01/13 07:01:53;;;;;;;24.20;15.82;;;20.50;54.00;;;;;;5098547;28;20032;-74
2022/01/13 07:04:20;;;;;;;22.65;15.82;;;20.40;55.00;;;;;;5098403;28;20032;-73
2022/01/13 07:06:46;;;;;;;28.10;16.02;;;20.30;55.60;;;;;;5098541;28;20051;-76
2022/01/13 07:09:16;;;;;;;26.90;15.63;;;20.20;56.00;;;;;;5098504;28;20100;-77
2022/01/13 07:11:44;;;;;;;28.98;17.77;;;20.10;56.40;;;;;;5098438;28;20048;-75
2022/01/13 07:14:10;;;;;;;27.55;16.90;;;20.00;56.50;;;;;;5080810;28;20050;-73
2022/01/13 07:16:38;;;;;;;28.67;17.00;;;20.00;57.00;;;;;;5080686;28;20036;-75
2022/01/13 07:19:04;;;;;;;33.28;19.02;;;20.00;57.40;;;;;;5098375;28;20040;-76
2022/01/13 07:21:31;;;;;;;31.83;17.00;;;19.80;57.60;;;;;;5098238;28;20048;-75
2022/01/13 07:23:57;;;;;;;35.72;17.30;;;19.90;58.00;;;;;;5097808;28;20043;-74
2022/01/13 07:26:23;;;;;;;26.73;16.73;;;19.80;58.50;;;;;;5098198;28;20043;-74
2022/01/13 07:28:49;;;;;;;34.75;17.80;;;19.80;59.30;;;;;;5097955;28;20052;-77
2022/01/13 07:31:15;;;;;;;28.45;16.65;;;19.70;60.00;;;;;;5097746;28;20047;-76
2022/01/13 07:33:43;;;;;;;27.40;16.17;;;19.70;60.40;;;;;;5097523;28;20104;-75
2022/01/13 07:36:10;;;;;;;28.70;16.50;;;19.80;60.30;;;;;;5097786;28;20099;-73
2022/01/13 07:38:36;;;;;;;32.55;17.27;;;19.70;61.10;;;;;;5097653;28;20047;-73
2022/01/13 07:41:03;;;;;;;30.50;16.38;;;19.70;60.10;;;;;;5097978;28;20039;-73
2022/01/13 07:43:31;;;;;;;29.77;14.93;;;19.80;59.60;;;;;;5097811;28;20044;-74
2022/01/13 07:45:57;;;;;;;24.80;14.15;;;19.80;60.60;;;;;;5097743;28;20047;-75
2022/01/13 07:48:24;;;;;;;25.63;16.45;;;19.80;59.70;;;;;;5097992;28;20052;-75
2022/01/13 07:50:51;;;;;;;26.13;14.88;;;19.80;58.70;;;;;;5097770;28;20040;-74
2022/01/13 07:53:18;;;;;;;30.13;16.08;;;19.70;59.10;;;;;;5097527;28;20040;-78
2022/01/13 07:55:45;;;;;;;24.88;14.57;;;19.70;58.90;;;;;;5097509;28;20040;-75
2022/01/13 07:58:11;;;;;;;24.02;15.00;;;19.90;58.30;;;;;;5097303;28;20041;-75
2022/01/13 08:00:37;;;;;;;25.45;14.85;;;19.80;57.80;;;;;;5097366;28;20036;-75
2022/01/13 08:03:04;;;;;;;30.40;16.55;;;19.70;58.40;;;;;;5097212;28;20032;-74
2022/01/13 08:05:30;;;;;;;26.10;16.48;;;19.80;58.40;;;;;;5097224;28;20082;-74
2022/01/13 08:07:56;;;;;;;26.83;14.32;;;19.80;58.20;;;;;;5097461;28;20049;-75
2022/01/13 08:10:22;;;;;;;27.38;17.15;;;19.70;59.10;;;;;;5097453;28;20041;-75
2022/01/13 08:12:49;;;;;;;27.05;16.45;;;19.80;57.80;;;;;;5079927;28;20043;-75
2022/01/13 08:15:15;;;;;;;26.45;15.40;;;19.70;57.90;;;;;;5096833;28;20035;-75
2022/01/13 08:20:32;;;;;;;31.45;16.45;;;19.60;60.10;;;;;;5096752;28;20040;-75
2022/01/13 08:23:00;;;;;;;29.55;16.50;;;19.70;63.20;;;;;;5097052;28;20041;-75
2022/01/13 08:25:27;;;;;;;29.70;15.43;;;19.80;62.70;;;;;;5095587;28;20064;-75
2022/01/13 08:27:53;;;;;;;27.65;16.05;;;19.80;65.60;;;;;;5095546;28;20096;-74
2022/01/13 08:30:20;;;;;;;28.25;15.43;;;19.90;63.90;;;;;;5095566;28;20032;-74
2022/01/13 08:32:46;;;;;;;26.60;13.38;;;19.90;62.40;;;;;;5095027;28;20048;-73
2022/01/13 08:35:12;;;;;;;33.97;15.38;;;19.90;62.10;;;;;;5111537;28;20070;-75
2022/01/13 08:37:40;;;;;;;9.13;3.67;;;20.00;60.70;;;;;;5095600;28;20033;-70
2022/01/13 08:40:10;;;;;;;3.80;2.10;;;20.10;60.60;;;;;;5095842;28;20045;-66
2022/01/13 08:42:36;;;;;;;14.60;7.72;;;20.30;57.80;;;;;;5095082;28;20063;-65
2022/01/13 08:45:07;;;;;;;22.83;11.00;;;20.50;54.60;;;;;;5095831;28;20040;-65
2022/01/13 08:47:34;;;;;;;28.77;16.02;;;20.70;52.10;;;;;;5096672;28;20044;-78
2022/01/13 08:50:00;;;;;;;13.15;7.65;;;20.70;50.00;;;;;;5096781;28;20056;-76
2022/01/13 08:52:27;;;;;;;26.35;13.88;;;20.80;48.20;;;;;;5096690;28;20045;-76
2022/01/13 08:54:55;;;;;;;17.90;10.05;;;20.90;47.80;;;;;;5096210;28;20096;-77
2022/01/13 08:57:22;;;;;;;19.25;10.75;;;21.00;47.60;;;;;;5096449;28;20044;-76
2022/01/13 08:59:48;;;;;;;25.63;13.15;;;21.00;47.50;;;;;;5095884;28;20047;-76
2022/01/13 09:02:14;;;;;;;12.25;6.07;;;21.10;47.40;;;;;;5080783;28;20061;-75
2022/01/13 09:04:41;;;;;;;16.90;8.73;;;21.10;46.00;;;;;;5075770;28;20037;-76
2022/01/13 09:07:07;;;;;;;14.23;8.00;;;21.10;44.50;;;;;;5075391;28;20037;-75
2022/01/13 09:09:34;;;;;;;19.33;10.65;;;21.20;43.00;;;;;;5057762;28;20037;-74
2022/01/13 09:12:00;;;;;;;20.10;10.65;;;21.20;42.50;;;;;;5074956;28;20063;-73
2022/01/13 09:14:28;;;;;;;18.88;12.23;;;21.20;41.60;;;;;;5075278;28;20052;-75
2022/01/13 09:16:57;;;;;;;16.88;9.38;;;21.20;41.20;;;;;;5075658;28;20040;-75
2022/01/13 09:19:23;;;;;;;12.95;6.28;;;21.30;41.10;;;;;;5075777;28;20041;-75
2022/01/13 09:21:50;;;;;;;11.60;6.32;;;21.30;40.70;;;;;;5074971;28;20572;-75
2022/01/13 09:24:18;;;;;;;21.05;12.20;;;21.30;40.00;;;;;;5058546;28;20045;-78
2022/01/13 09:26:45;;;;;;;18.67;11.88;;;21.40;39.30;;;;;;5081990;28;20056;-75
2022/01/13 09:29:12;;;;;;;22.90;12.05;;;21.30;38.60;;;;;;5095840;28;20041;-75
2022/01/13 09:31:40;;;;;;;20.02;12.52;;;21.40;39.10;;;;;;5095729;28;20155;-76
2022/01/13 09:34:09;;;;;;;20.88;11.30;;;21.50;39.60;;;;;;5095199;28;20264;-74
2022/01/13 09:36:36;;;;;;;18.65;11.23;;;21.40;40.00;;;;;;5094943;28;20032;-75
2022/01/13 09:39:05;;;;;;;21.27;11.10;;;21.40;40.70;;;;;;5095489;28;20036;-74
2022/01/13 09:41:33;;;;;;;13.68;9.48;;;21.20;40.50;;;;;;5095499;28;20033;-74
2022/01/13 09:44:02;;;;;;;22.45;12.75;;;21.20;42.10;;;;;;5095593;28;20037;-74
2022/01/13 09:46:28;;;;;;;13.60;9.27;;;21.10;42.70;;;;;;5095634;28;20040;-73
2022/01/13 09:48:55;;;;;;;14.23;8.13;;;21.10;33.80;;;;;;5095753;28;20062;-74
2022/01/13 09:51:25;;;;;;;23.08;15.60;;;21.30;30.30;;;;;;5095388;28;20063;-73
2022/01/13 09:53:52;;;;;;;23.08;15.70;;;21.20;29.80;;;;;;5095664;28;20044;-74
2022/01/13 09:56:19;;;;;;;17.58;10.05;;;21.40;31.70;;;;;;5095700;28;20051;-72
2022/01/13 09:58:45;;;;;;;12.95;7.25;;;21.50;39.80;;;;;;5095419;28;20051;-73
2022/01/13 10:01:11;;;;;;;20.20;12.13;;;21.70;38.80;;;;;;5095669;28;20048;-75
2022/01/13 10:03:38;;;;;;;25.60;12.10;;;21.80;40.20;;;;;;5095595;28;20041;-74
2022/01/13 10:06:13;;;;;;;17.45;10.02;;;21.80;44.30;;;;;;5095437;28;20125;-75
2022/01/13 10:08:50;;;;;;;19.88;13.02;;;21.90;45.20;;;;;;5095447;28;20055;-75
2022/01/13 10:11:38;;;;;;;16.38;11.82;;;21.80;46.90;;;;;;5095516;28;20056;-76
2022/01/13 10:14:13;;;;;;;16.40;10.65;;;21.90;32.60;;;;;;5095419;28;20055;-74
2022/01/13 10:16:52;;;;;;;13.88;7.65;;;21.90;30.00;;;;;;5095405;28;20044;-74
2022/01/13 10:19:42;;;;;;;12.57;8.73;;;21.90;28.40;;;;;;5095434;28;20036;-74
2022/01/13 10:22:13;;;;;;;16.65;9.20;;;21.80;25.90;;;;;;5099017;28;20060;-75
2022/01/13 10:24:42;;;;;;;23.05;13.68;;;21.80;29.20;;;;;;5099162;28;20050;-74
2022/01/13 10:27:18;;;;;;;14.52;9.32;;;22.00;25.80;;;;;;5099144;28;20036;-74
2022/01/13 10:29:47;;;;;;;16.02;8.65;;;21.90;28.00;;;;;;5099149;28;20094;-73
2022/01/13 10:32:16;;;;;;;17.45;9.00;;;22.00;30.30;;;;;;5099088;28;20048;-72
2022/01/13 10:34:45;;;;;;;23.67;14.77;;;22.00;28.80;;;;;;5098896;28;20051;-72
2022/01/13 10:37:13;;;;;;;14.00;7.93;;;22.00;27.90;;;;;;5099039;28;20040;-74
2022/01/13 10:39:49;;;;;;;12.70;7.78;;;21.90;32.30;;;;;;5098950;28;20040;-73
2022/01/13 10:45:26;;;;;;;21.48;13.65;;;22.10;31.60;;;;;;5081609;28;20037;-73
2022/01/13 10:48:15;;;;;;;15.43;9.63;;;22.30;31.00;;;;;;5098749;28;20040;-72
2022/01/13 10:50:45;;;;;;;15.90;10.60;;;22.20;30.00;;;;;;5098757;28;20068;-72
2022/01/13 10:53:25;;;;;;;19.95;9.70;;;22.10;31.40;;;;;;5098982;28;20048;-73
2022/01/13 10:55:56;;;;;;;16.45;10.75;;;22.30;38.00;;;;;;5096797;28;20056;-72
2022/01/13 10:58:29;;;;;;;13.55;8.95;;;22.40;33.60;;;;;;5089404;28;20104;-74
2022/01/13 11:00:57;;;;;;;13.40;8.48;;;22.40;37.30;;;;;;5098465;28;20041;-74
2022/01/13 11:03:27;;;;;;;15.43;9.82;;;22.40;39.00;;;;;;5098483;28;20040;-77
2022/01/13 11:05:57;;;;;;;18.90;11.13;;;22.60;47.70;;;;;;5080939;28;20071;-76
2022/01/13 11:08:37;;;;;;;19.58;10.93;;;22.60;48.00;;;;;;5080741;28;20044;-74
2022/01/13 11:11:03;;;;;;;20.13;11.60;;;22.60;48.50;;;;;;5098354;28;20048;-74
2022/01/13 11:13:35;;;;;;;21.67;12.35;;;22.50;50.40;;;;;;5098334;28;20044;-75
2022/01/13 11:16:02;;;;;;;21.07;11.93;;;22.30;51.80;;;;;;5080349;28;20079;-74
2022/01/13 11:18:32;;;;;;;18.30;10.60;;;22.30;50.90;;;;;;5098417;28;20049;-73
2022/01/13 11:20:59;;;;;;;20.73;12.55;;;22.20;51.00;;;;;;5081058;28;20064;-75
2022/01/13 11:23:26;;;;;;;18.02;12.00;;;22.10;51.00;;;;;;5097868;28;20045;-73
2022/01/13 11:25:57;;;;;;;18.05;9.52;;;21.90;51.10;;;;;;5098126;28;20139;-72
2022/01/13 11:28:27;;;;;;;16.42;10.43;;;21.90;51.90;;;;;;5098262;28;20066;-75
2022/01/13 11:30:53;;;;;;;18.88;11.43;;;22.00;51.70;;;;;;5097374;28;20040;-74
2022/01/13 11:33:22;;;;;;;13.15;8.40;;;21.90;51.80;;;;;;5098142;28;20048;-73
2022/01/13 11:35:55;;;;;;;19.83;11.25;;;21.80;52.40;;;;;;5097544;28;20049;-73
2022/01/13 11:38:24;;;;;;;23.35;12.23;;;21.80;52.10;;;;;;5097870;28;20032;-74
2022/01/13 11:40:52;;;;;;;23.25;12.13;;;21.90;52.30;;;;;;5096961;28;20045;-73
2022/01/13 11:43:28;;;;;;;21.98;12.73;;;21.60;52.30;;;;;;5097581;28;20064;-74
2022/01/13 11:45:55;;;;;;;24.63;14.13;;;21.70;53.30;;;;;;5097531;28;20099;-72
2022/01/13 11:48:25;;;;;;;20.42;13.02;;;21.60;53.30;;;;;;5097496;28;20102;-73
2022/01/13 11:51:00;;;;;;;22.17;13.00;;;21.40;53.60;;;;;;5097471;28;20040;-74
2022/01/13 11:53:31;;;;;;;25.27;13.70;;;21.40;54.40;;;;;;5097409;28;20048;-76
2022/01/13 11:56:06;;;;;;;20.65;12.85;;;21.30;54.80;;;;;;5097645;28;20048;-75
2022/01/13 11:58:41;;;;;;;19.63;12.38;;;21.10;55.40;;;;;;5097480;28;20036;-76
2022/01/13 12:01:19;;;;;;;19.17;11.73;;;21.10;55.70;;;;;;5096636;28;20043;-74
2022/01/13 12:03:56;;;;;;;17.85;11.52;;;21.10;55.70;;;;;;5096651;28;20041;-74
2022/01/13 12:06:46;;;;;;;19.23;11.32;;;21.30;55.60;;;;;;5097181;28;20050;-74
2022/01/13 12:09:21;;;;;;;18.33;10.93;;;21.20;55.40;;;;;;5096947;28;20044;-73
2022/01/13 12:11:53;;;;;;;19.92;10.90;;;21.30;55.30;;;;;;5097234;28;20067;-75
2022/01/13 12:14:28;;;;;;;18.23;10.25;;;21.30;55.20;;;;;;5097229;28;20073;-75
2022/01/13 12:17:42;;;;;;;17.90;9.77;;;21.50;54.70;;;;;;5097133;28;20195;-75
2022/01/13 12:20:39;;;;;;;21.83;12.45;;;21.60;54.30;;;;;;5078561;28;20135;-73
2022/01/13 12:23:16;;;;;;;17.80;10.95;;;21.60;53.60;;;;;;5097099;28;20040;-77
2022/01/13 12:25:44;;;;;;;17.80;9.38;;;21.80;53.50;;;;;;5078269;28;20051;-74
2022/01/13 12:28:13;;;;;;;20.27;11.77;;;21.80;53.90;;;;;;5096113;28;20047;-74
2022/01/13 12:30:40;;;;;;;21.00;11.48;;;22.00;54.60;;;;;;5095351;28;20044;-74
2022/01/13 12:33:08;;;;;;;18.67;11.48;;;22.00;56.50;;;;;;5055146;28;20080;-75
2022/01/13 12:35:34;;;;;;;18.50;10.23;;;22.00;55.70;;;;;;5055450;28;20050;-75
2022/01/13 12:38:02;;;;;;;13.73;8.55;;;22.00;54.80;;;;;;5055072;28;20044;-75
2022/01/13 12:40:54;;;;;;;17.30;8.35;;;22.20;54.40;;;;;;5055517;28;20053;-74
2022/01/13 12:43:37;;;;;;;15.65;8.65;;;22.20;54.10;;;;;;5055499;28;20041;-75
2022/01/13 12:46:05;;;;;;;;;;;22.20;53.70;;;;;;5056011;28;20060;-75
2022/01/13 12:48:31;;;;;;;16.25;8.63;;;22.40;53.60;;;;;;5055146;28;19972;-75
2022/01/13 12:50:59;;;;;;;14.30;8.52;;;22.50;53.40;;;;;;5056449;28;20065;-75
2022/01/13 12:53:29;;;;;;;14.68;9.18;;;22.40;53.20;;;;;;5056129;28;20096;-74
2022/01/13 12:55:55;;;;;;;18.58;9.70;;;22.50;53.00;;;;;;5056445;28;20041;-75
2022/01/13 12:58:22;;;;;;;15.40;10.05;;;22.50;53.00;;;;;;5056448;28;20048;-75
2022/01/13 13:00:48;;;;;;;16.70;8.73;;;22.40;52.90;;;;;;5072189;28;20049;-75
2022/01/13 13:03:18;;;;;;;14.02;9.57;;;22.50;53.20;;;;;;5056419;28;20049;-75